sensor_id;sensor_type;location;lat;lon;timestamp;pressure;altitude;pressure_sealevel;temperature;humidity
6094;BME280;19964;42.060;24.700;2023-04-23T00:01:47;97529.88;;;11.60;100.00
6094;BME280;19964;42.060;24.700;2023-04-23T00:04:15;97515.09;;;11.73;100.00
6094;BME280;19964;42.060;24.700;2023-04-23T00:06:45;97506.75;;;11.59;100.00
6094;BME280;19964;42.060;24.700;2023-04-23T00:09:14;97520.75;;;11.58;100.00
6094;BME280;19964;42.060;24.700;2023-04-23T00:11:41;97524.03;;;11.53;100.00
6094;BME280;19964;42.060;24.700;2023-04-23T00:14:08;97514.16;;;11.79;100.00
6094;BME280;19964;42.060;24.700;2023-04-23T00:16:38;97520.44;;;11.94;100.00
6094;BME280;19964;42.060;24.700;2023-04-23T00:19:05;97528.63;;;11.63;100.00
6094;BME280;19964;42.060;24.700;2023-04-23T00:21:32;97529.09;;;11.72;100.00
6094;BME280;19964;42.060;24.700;2023-04-23T00:23:59;97509.19;;;11.37;100.00
6094;BME280;19964;42.060;24.700;2023-04-23T00:26:26;97536.59;;;11.22;100.00
6094;BME280;19964;42.060;24.700;2023-04-23T00:28:52;97530.28;;;11.41;100.00
6094;BME280;19964;42.060;24.700;2023-04-23T00:31:19;97527.53;;;11.47;100.00
6094;BME280;19964;42.060;24.700;2023-04-23T00:33:48;97529.38;;;11.24;100.00
6094;BME280;19964;42.060;24.700;2023-04-23T00:36:15;97536.63;;;11.10;100.00
6094;BME280;19964;42.060;24.700;2023-04-23T00:38:41;97523.56;;;11.05;100.00
6094;BME280;19964;42.060;24.700;2023-04-23T00:41:08;97526.59;;;11.02;100.00
6094;BME280;19964;42.060;24.700;2023-04-23T00:43:35;97453.25;;;10.55;100.00
6094;BME280;19964;42.060;24.700;2023-04-23T00:46:03;97532.91;;;11.06;100.00
6094;BME280;19964;42.060;24.700;2023-04-23T00:48:31;97523.34;;;10.95;100.00
6094;BME280;19964;42.060;24.700;2023-04-23T00:51:03;97535.28;;;11.19;100.00
6094;BME280;19964;42.060;24.700;2023-04-23T00:53:30;97527.56;;;11.36;100.00
6094;BME280;19964;42.060;24.700;2023-04-23T00:55:59;97528.59;;;11.46;100.00
6094;BME280;19964;42.060;24.700;2023-04-23T00:58:27;97537.44;;;11.62;100.00
6094;BME280;19964;42.060;24.700;2023-04-23T01:00:55;97532.81;;;11.64;100.00
6094;BME280;19964;42.060;24.700;2023-04-23T01:03:22;97537.44;;;11.62;100.00
6094;BME280;19964;42.060;24.700;2023-04-23T01:05:50;97539.94;;;11.69;100.00
6094;BME280;19964;42.060;24.700;2023-04-23T01:08:19;97532.56;;;11.77;100.00
6094;BME280;19964;42.060;24.700;2023-04-23T01:10:48;97512.75;;;11.71;100.00
6094;BME280;19964;42.060;24.700;2023-04-23T01:13:16;97533.09;;;11.91;100.00
6094;BME280;19964;42.060;24.700;2023-04-23T01:15:43;97531.69;;;11.72;100.00
6094;BME280;19964;42.060;24.700;2023-04-23T01:18:11;97532.28;;;11.50;100.00
6094;BME280;19964;42.060;24.700;2023-04-23T01:20:38;97529.28;;;11.30;100.00
6094;BME280;19964;42.060;24.700;2023-04-23T01:23:06;97534.50;;;10.84;100.00
6094;BME280;19964;42.060;24.700;2023-04-23T01:25:33;97532.47;;;10.74;100.00
6094;BME280;19964;42.060;24.700;2023-04-23T01:28:00;97531.09;;;10.72;100.00
6094;BME280;19964;42.060;24.700;2023-04-23T01:30:28;97536.25;;;10.37;100.00
6094;BME280;19964;42.060;24.700;2023-04-23T01:32:56;97364.88;;;9.23;100.00
6094;BME280;19964;42.060;24.700;2023-04-23T01:35:23;97526.84;;;10.25;100.00
6094;BME280;19964;42.060;24.700;2023-04-23T01:37:51;97529.91;;;10.04;100.00
6094;BME280;19964;42.060;24.700;2023-04-23T01:40:20;97535.69;;;9.87;100.00
6094;BME280;19964;42.060;24.700;2023-04-23T01:42:48;97519.63;;;9.67;100.00
6094;BME280;19964;42.060;24.700;2023-04-23T01:45:15;97539.91;;;9.70;100.00
6094;BME280;19964;42.060;24.700;2023-04-23T01:47:44;97534.38;;;9.67;100.00
6094;BME280;19964;42.060;24.700;2023-04-23T01:50:11;97538.75;;;9.66;100.00
6094;BME280;19964;42.060;24.700;2023-04-23T01:52:38;97535.81;;;9.81;100.00
6094;BME280;19964;42.060;24.700;2023-04-23T01:55:07;97541.84;;;9.75;100.00
6094;BME280;19964;42.060;24.700;2023-04-23T01:57:35;97541.13;;;9.68;100.00
6094;BME280;19964;42.060;24.700;2023-04-23T02:00:04;97537.03;;;9.60;100.00
6094;BME280;19964;42.060;24.700;2023-04-23T02:02:33;97545.31;;;9.69;100.00
6094;BME280;19964;42.060;24.700;2023-04-23T02:05:00;97542.38;;;9.65;100.00
6094;BME280;19964;42.060;24.700;2023-04-23T02:07:29;97541.78;;;9.63;100.00
6094;BME280;19964;42.060;24.700;2023-04-23T02:09:56;97544.72;;;9.67;100.00
6094;BME280;19964;42.060;24.700;2023-04-23T02:12:23;97539.56;;;9.67;100.00
6094;BME280;19964;42.060;24.700;2023-04-23T02:14:51;97545.78;;;9.77;100.00
6094;BME280;19964;42.060;24.700;2023-04-23T02:17:19;97528.25;;;9.79;100.00
6094;BME280;19964;42.060;24.700;2023-04-23T02:19:47;97538.25;;;9.76;100.00
6094;BME280;19964;42.060;24.700;2023-04-23T02:22:14;97540.59;;;9.77;100.00
6094;BME280;19964;42.060;24.700;2023-04-23T02:24:41;97549.59;;;9.75;100.00
6094;BME280;19964;42.060;24.700;2023-04-23T02:27:09;97547.28;;;9.85;100.00
6094;BME280;19964;42.060;24.700;2023-04-23T02:29:36;97543.16;;;9.96;100.00
6094;BME280;19964;42.060;24.700;2023-04-23T02:32:04;97528.28;;;9.91;100.00
6094;BME280;19964;42.060;24.700;2023-04-23T02:34:31;97550.06;;;10.02;100.00
6094;BME280;19964;42.060;24.700;2023-04-23T02:36:58;97533.16;;;9.99;100.00
6094;BME280;19964;42.060;24.700;2023-04-23T02:39:25;97550.47;;;10.17;100.00
6094;BME280;19964;42.060;24.700;2023-04-23T02:41:51;97536.03;;;9.91;100.00
6094;BME280;19964;42.060;24.700;2023-04-23T02:44:18;97553.56;;;10.07;100.00
6094;BME280;19964;42.060;24.700;2023-04-23T02:46:45;97552.94;;;10.12;100.00
6094;BME280;19964;42.060;24.700;2023-04-23T02:49:13;97555.69;;;10.28;100.00
6094;BME280;19964;42.060;24.700;2023-04-23T02:51:40;97555.38;;;10.36;100.00
6094;BME280;19964;42.060;24.700;2023-04-23T02:54:07;97550.75;;;10.38;100.00
6094;BME280;19964;42.060;24.700;2023-04-23T02:56:34;97553.50;;;10.43;100.00
6094;BME280;19964;42.060;24.700;2023-04-23T02:59:00;97551.78;;;10.37;100.00
6094;BME280;19964;42.060;24.700;2023-04-23T03:01:27;97542.63;;;10.23;100.00
6094;BME280;19964;42.060;24.700;2023-04-23T03:03:54;97546.69;;;10.31;100.00
6094;BME280;19964;42.060;24.700;2023-04-23T03:06:23;97558.13;;;10.12;100.00
6094;BME280;19964;42.060;24.700;2023-04-23T03:08:49;97556.72;;;10.09;100.00
6094;BME280;19964;42.060;24.700;2023-04-23T03:11:16;97552.94;;;9.94;100.00
6094;BME280;19964;42.060;24.700;2023-04-23T03:13:43;97552.66;;;9.83;100.00
6094;BME280;19964;42.060;24.700;2023-04-23T03:16:10;97553.75;;;9.94;100.00
6094;BME280;19964;42.060;24.700;2023-04-23T03:18:37;97558.63;;;10.02;100.00
6094;BME280;19964;42.060;24.700;2023-04-23T03:21:03;97553.34;;;10.09;100.00
6094;BME280;19964;42.060;24.700;2023-04-23T03:23:32;97551.56;;;9.91;100.00
6094;BME280;19964;42.060;24.700;2023-04-23T03:25:58;97557.69;;;9.97;100.00
6094;BME280;19964;42.060;24.700;2023-04-23T03:28:25;97560.47;;;9.95;100.00
6094;BME280;19964;42.060;24.700;2023-04-23T03:30:52;97566.41;;;9.84;100.00
6094;BME280;19964;42.060;24.700;2023-04-23T03:33:19;97572.91;;;10.05;100.00
6094;BME280;19964;42.060;24.700;2023-04-23T03:35:46;97570.03;;;10.13;100.00
6094;BME280;19964;42.060;24.700;2023-04-23T03:38:12;97580.31;;;10.19;100.00
6094;BME280;19964;42.060;24.700;2023-04-23T03:40:41;97577.66;;;10.26;100.00
6094;BME280;19964;42.060;24.700;2023-04-23T03:43:07;97583.44;;;10.10;100.00
6094;BME280;19964;42.060;24.700;2023-04-23T03:45:34;97591.00;;;10.05;100.00
6094;BME280;19964;42.060;24.700;2023-04-23T03:48:01;97594.06;;;10.20;100.00
6094;BME280;19964;42.060;24.700;2023-04-23T03:50:28;97589.81;;;10.37;100.00
6094;BME280;19964;42.060;24.700;2023-04-23T03:52:56;97593.19;;;10.26;100.00
6094;BME280;19964;42.060;24.700;2023-04-23T03:55:23;97512.44;;;9.99;100.00
6094;BME280;19964;42.060;24.700;2023-04-23T03:57:51;97585.34;;;10.55;100.00
6094;BME280;19964;42.060;24.700;2023-04-23T04:00:17;97590.63;;;10.37;100.00
6094;BME280;19964;42.060;24.700;2023-04-23T04:02:45;97593.94;;;10.56;100.00
6094;BME280;19964;42.060;24.700;2023-04-23T04:05:11;97578.63;;;10.54;100.00
6094;BME280;19964;42.060;24.700;2023-04-23T04:07:38;97486.81;;;9.98;100.00
6094;BME280;19964;42.060;24.700;2023-04-23T04:10:06;97599.69;;;10.69;100.00
6094;BME280;19964;42.060;24.700;2023-04-23T04:12:33;97597.25;;;10.86;100.00
6094;BME280;19964;42.060;24.700;2023-04-23T04:15:02;97599.31;;;11.07;100.00
6094;BME280;19964;42.060;24.700;2023-04-23T04:17:29;97611.13;;;11.15;100.00
6094;BME280;19964;42.060;24.700;2023-04-23T04:19:55;97607.88;;;11.31;100.00
6094;BME280;19964;42.060;24.700;2023-04-23T04:22:22;97528.97;;;10.92;100.00
6094;BME280;19964;42.060;24.700;2023-04-23T04:24:49;97614.16;;;11.81;100.00
6094;BME280;19964;42.060;24.700;2023-04-23T04:27:17;97617.72;;;12.03;100.00
6094;BME280;19964;42.060;24.700;2023-04-23T04:29:44;97625.34;;;12.10;100.00
6094;BME280;19964;42.060;24.700;2023-04-23T04:32:12;97611.78;;;12.19;100.00
6094;BME280;19964;42.060;24.700;2023-04-23T04:34:39;97630.41;;;12.44;100.00
6094;BME280;19964;42.060;24.700;2023-04-23T04:37:05;97629.03;;;12.53;100.00
6094;BME280;19964;42.060;24.700;2023-04-23T04:39:34;97637.16;;;12.29;100.00
6094;BME280;19964;42.060;24.700;2023-04-23T04:42:01;97624.03;;;12.35;100.00
6094;BME280;19964;42.060;24.700;2023-04-23T04:44:28;97641.72;;;12.67;98.77
6094;BME280;19964;42.060;24.700;2023-04-23T04:46:55;97640.72;;;12.84;95.93
6094;BME280;19964;42.060;24.700;2023-04-23T04:49:23;97657.00;;;13.24;94.79
6094;BME280;19964;42.060;24.700;2023-04-23T04:51:50;97646.88;;;13.61;92.73
6094;BME280;19964;42.060;24.700;2023-04-23T04:54:18;97564.44;;;13.28;90.17
6094;BME280;19964;42.060;24.700;2023-04-23T04:56:45;97657.84;;;13.85;90.11
6094;BME280;19964;42.060;24.700;2023-04-23T04:59:12;97652.00;;;13.94;90.38
6094;BME280;19964;42.060;24.700;2023-04-23T05:01:39;97662.16;;;13.74;90.18
6094;BME280;19964;42.060;24.700;2023-04-23T05:04:05;97657.97;;;13.18;94.69
6094;BME280;19964;42.060;24.700;2023-04-23T05:06:33;97658.91;;;13.12;97.36
6094;BME280;19964;42.060;24.700;2023-04-23T05:09:00;97658.72;;;13.02;96.69
6094;BME280;19964;42.060;24.700;2023-04-23T05:11:27;97647.66;;;12.34;100.00
6094;BME280;19964;42.060;24.700;2023-04-23T05:13:55;97660.44;;;12.24;100.00
6094;BME280;19964;42.060;24.700;2023-04-23T05:16:22;97650.78;;;11.96;100.00
6094;BME280;19964;42.060;24.700;2023-04-23T05:18:49;97653.97;;;11.63;100.00
6094;BME280;19964;42.060;24.700;2023-04-23T05:21:16;97660.75;;;11.88;100.00
6094;BME280;19964;42.060;24.700;2023-04-23T05:23:45;97660.09;;;11.81;100.00
6094;BME280;19964;42.060;24.700;2023-04-23T05:26:11;97660.66;;;11.71;100.00
6094;BME280;19964;42.060;24.700;2023-04-23T05:28:38;97665.25;;;11.92;100.00
6094;BME280;19964;42.060;24.700;2023-04-23T05:31:05;97666.63;;;11.95;100.00
6094;BME280;19964;42.060;24.700;2023-04-23T05:33:32;97671.22;;;12.04;100.00
6094;BME280;19964;42.060;24.700;2023-04-23T05:35:59;97678.47;;;11.79;100.00
6094;BME280;19964;42.060;24.700;2023-04-23T05:38:26;97608.09;;;11.18;100.00
6094;BME280;19964;42.060;24.700;2023-04-23T05:40:54;97667.19;;;11.50;100.00
6094;BME280;19964;42.060;24.700;2023-04-23T05:43:20;97677.34;;;11.40;100.00
6094;BME280;19964;42.060;24.700;2023-04-23T05:45:47;97672.72;;;11.54;100.00
6094;BME280;19964;42.060;24.700;2023-04-23T05:48:14;97673.03;;;12.04;100.00
6094;BME280;19964;42.060;24.700;2023-04-23T05:50:41;97667.00;;;12.26;100.00
6094;BME280;19964;42.060;24.700;2023-04-23T05:53:08;97675.41;;;11.94;100.00
6094;BME280;19964;42.060;24.700;2023-04-23T05:55:34;97679.25;;;12.03;100.00
6094;BME280;19964;42.060;24.700;2023-04-23T05:58:02;97681.09;;;12.30;100.00
6094;BME280;19964;42.060;24.700;2023-04-23T06:00:29;97689.25;;;12.22;100.00
6094;BME280;19964;42.060;24.700;2023-04-23T06:02:56;97683.91;;;11.89;100.00
6094;BME280;19964;42.060;24.700;2023-04-23T06:05:23;97682.44;;;11.70;100.00
6094;BME280;19964;42.060;24.700;2023-04-23T06:07:50;97658.13;;;11.64;100.00
6094;BME280;19964;42.060;24.700;2023-04-23T06:10:17;97589.25;;;10.76;100.00
6094;BME280;19964;42.060;24.700;2023-04-23T06:12:44;97678.13;;;11.52;100.00
6094;BME280;19964;42.060;24.700;2023-04-23T06:15:12;97679.16;;;11.75;100.00
6094;BME280;19964;42.060;24.700;2023-04-23T06:17:38;97681.59;;;12.04;100.00
6094;BME280;19964;42.060;24.700;2023-04-23T06:20:06;97666.53;;;11.90;100.00
6094;BME280;19964;42.060;24.700;2023-04-23T06:22:36;97681.41;;;12.34;100.00
6094;BME280;19964;42.060;24.700;2023-04-23T06:25:03;97680.38;;;11.95;100.00
6094;BME280;19964;42.060;24.700;2023-04-23T06:27:30;97692.44;;;12.13;100.00
6094;BME280;19964;42.060;24.700;2023-04-23T06:29:58;97682.97;;;11.95;100.00
6094;BME280;19964;42.060;24.700;2023-04-23T06:32:26;97688.06;;;11.90;100.00
6094;BME280;19964;42.060;24.700;2023-04-23T06:34:53;97684.88;;;12.00;100.00
6094;BME280;19964;42.060;24.700;2023-04-23T06:37:19;97689.09;;;12.29;100.00
6094;BME280;19964;42.060;24.700;2023-04-23T06:39:46;97686.50;;;12.29;100.00
6094;BME280;19964;42.060;24.700;2023-04-23T06:42:13;97695.09;;;12.29;100.00
6094;BME280;19964;42.060;24.700;2023-04-23T06:44:40;97691.50;;;12.59;100.00
6094;BME280;19964;42.060;24.700;2023-04-23T06:47:07;97697.84;;;12.79;100.00
6094;BME280;19964;42.060;24.700;2023-04-23T06:49:35;97700.84;;;13.16;97.17
6094;BME280;19964;42.060;24.700;2023-04-23T06:52:02;97675.06;;;13.48;96.45
6094;BME280;19964;42.060;24.700;2023-04-23T06:54:28;97701.50;;;14.16;94.53
6094;BME280;19964;42.060;24.700;2023-04-23T06:56:55;97710.78;;;13.69;90.77
6094;BME280;19964;42.060;24.700;2023-04-23T06:59:22;97712.34;;;13.36;92.28
6094;BME280;19964;42.060;24.700;2023-04-23T07:01:49;97706.59;;;13.51;93.54
6094;BME280;19964;42.060;24.700;2023-04-23T07:04:15;97700.81;;;13.82;90.99
6094;BME280;19964;42.060;24.700;2023-04-23T07:06:43;97650.22;;;13.07;91.68
6094;BME280;19964;42.060;24.700;2023-04-23T07:09:10;97705.94;;;14.15;90.53
6094;BME280;19964;42.060;24.700;2023-04-23T07:11:37;97704.53;;;14.99;89.46
6094;BME280;19964;42.060;24.700;2023-04-23T07:14:04;97715.94;;;14.93;86.30
6094;BME280;19964;42.060;24.700;2023-04-23T07:16:30;97714.38;;;14.44;86.72
6094;BME280;19964;42.060;24.700;2023-04-23T07:18:58;97713.44;;;15.03;85.38
6094;BME280;19964;42.060;24.700;2023-04-23T07:21:27;97716.91;;;15.14;86.15
6094;BME280;19964;42.060;24.700;2023-04-23T07:23:56;97726.38;;;15.52;80.42
6094;BME280;19964;42.060;24.700;2023-04-23T07:26:24;97727.75;;;15.59;79.34
6094;BME280;19964;42.060;24.700;2023-04-23T07:28:52;97732.38;;;15.89;77.53
6094;BME280;19964;42.060;24.700;2023-04-23T07:31:18;97727.53;;;15.66;78.43
6094;BME280;19964;42.060;24.700;2023-04-23T07:33:45;97728.03;;;16.04;78.95
6094;BME280;19964;42.060;24.700;2023-04-23T07:36:12;97723.88;;;16.09;77.76
6094;BME280;19964;42.060;24.700;2023-04-23T07:38:39;97720.22;;;16.71;77.15
6094;BME280;19964;42.060;24.700;2023-04-23T07:41:07;97721.31;;;16.90;72.97
6094;BME280;19964;42.060;24.700;2023-04-23T07:43:34;97725.50;;;16.86;71.09
6094;BME280;19964;42.060;24.700;2023-04-23T07:46:01;97715.03;;;16.91;71.81
6094;BME280;19964;42.060;24.700;2023-04-23T07:48:28;97726.88;;;17.74;71.04
6094;BME280;19964;42.060;24.700;2023-04-23T07:50:55;97718.69;;;16.90;69.65
6094;BME280;19964;42.060;24.700;2023-04-23T07:53:22;97701.94;;;16.91;67.89
6094;BME280;19964;42.060;24.700;2023-04-23T07:55:49;97644.69;;;16.13;70.58
6094;BME280;19964;42.060;24.700;2023-04-23T07:58:17;97719.91;;;16.58;70.41
6094;BME280;19964;42.060;24.700;2023-04-23T08:00:43;97714.00;;;16.21;72.48
6094;BME280;19964;42.060;24.700;2023-04-23T08:03:10;97706.53;;;15.92;72.74
6094;BME280;19964;42.060;24.700;2023-04-23T08:05:37;97635.72;;;15.94;74.08
6094;BME280;19964;42.060;24.700;2023-04-23T08:08:05;97704.31;;;17.13;71.57
6094;BME280;19964;42.060;24.700;2023-04-23T08:10:32;97705.38;;;17.37;69.12
6094;BME280;19964;42.060;24.700;2023-04-23T08:12:59;97713.47;;;17.81;66.81
6094;BME280;19964;42.060;24.700;2023-04-23T08:15:27;97683.59;;;16.71;69.21
6094;BME280;19964;42.060;24.700;2023-04-23T08:17:55;97697.22;;;17.79;71.17
6094;BME280;19964;42.060;24.700;2023-04-23T08:20:22;97707.63;;;18.19;66.77
6094;BME280;19964;42.060;24.700;2023-04-23T08:22:50;97699.88;;;17.74;64.57
6094;BME280;19964;42.060;24.700;2023-04-23T08:25:18;97685.16;;;17.73;69.29
6094;BME280;19964;42.060;24.700;2023-04-23T08:27:45;97697.66;;;18.21;65.18
6094;BME280;19964;42.060;24.700;2023-04-23T08:30:12;97707.38;;;18.75;63.82
6094;BME280;19964;42.060;24.700;2023-04-23T08:32:40;97707.19;;;17.82;62.93
6094;BME280;19964;42.060;24.700;2023-04-23T08:35:08;97693.59;;;17.65;63.48
6094;BME280;19964;42.060;24.700;2023-04-23T08:37:35;97703.75;;;18.65;61.98
6094;BME280;19964;42.060;24.700;2023-04-23T08:40:04;97700.09;;;18.61;62.87
6094;BME280;19964;42.060;24.700;2023-04-23T08:42:37;97696.16;;;17.85;64.13
6094;BME280;19964;42.060;24.700;2023-04-23T08:45:04;97692.53;;;16.96;67.42
6094;BME280;19964;42.060;24.700;2023-04-23T08:47:32;97680.50;;;17.50;64.79
6094;BME280;19964;42.060;24.700;2023-04-23T08:50:03;97688.88;;;17.37;63.88
6094;BME280;19964;42.060;24.700;2023-04-23T08:52:32;97665.03;;;17.23;65.33
6094;BME280;19964;42.060;24.700;2023-04-23T08:55:01;97669.22;;;17.64;65.29
6094;BME280;19964;42.060;24.700;2023-04-23T08:57:30;97684.44;;;17.52;63.92
6094;BME280;19964;42.060;24.700;2023-04-23T08:59:57;97679.13;;;16.67;66.35
6094;BME280;19964;42.060;24.700;2023-04-23T09:02:24;97678.66;;;16.85;65.74
6094;BME280;19964;42.060;24.700;2023-04-23T09:04:52;97682.06;;;17.26;64.66
6094;BME280;19964;42.060;24.700;2023-04-23T09:07:20;97679.94;;;17.78;63.71
6094;BME280;19964;42.060;24.700;2023-04-23T09:09:47;97679.38;;;17.81;62.71
6094;BME280;19964;42.060;24.700;2023-04-23T09:12:14;97677.28;;;17.93;63.77
6094;BME280;19964;42.060;24.700;2023-04-23T09:14:41;97672.25;;;18.12;61.60
6094;BME280;19964;42.060;24.700;2023-04-23T09:17:08;97677.28;;;17.93;60.95
6094;BME280;19964;42.060;24.700;2023-04-23T09:19:35;97651.97;;;17.53;60.97
6094;BME280;19964;42.060;24.700;2023-04-23T09:22:03;97670.81;;;18.44;63.17
6094;BME280;19964;42.060;24.700;2023-04-23T09:24:33;97661.22;;;19.07;58.31
6094;BME280;19964;42.060;24.700;2023-04-23T09:27:00;97669.41;;;19.63;59.90
6094;BME280;19964;42.060;24.700;2023-04-23T09:29:27;97672.81;;;19.01;58.04
6094;BME280;19964;42.060;24.700;2023-04-23T09:32:05;97600.59;;;17.52;57.89
6094;BME280;19964;42.060;24.700;2023-04-23T09:34:33;97659.81;;;18.32;58.19
6094;BME280;19964;42.060;24.700;2023-04-23T09:37:01;97669.25;;;19.21;56.78
6094;BME280;19964;42.060;24.700;2023-04-23T09:39:29;97656.19;;;18.18;57.18
6094;BME280;19964;42.060;24.700;2023-04-23T09:42:02;97648.66;;;18.07;57.51
6094;BME280;19964;42.060;24.700;2023-04-23T09:44:31;97657.16;;;18.37;57.23
6094;BME280;19964;42.060;24.700;2023-04-23T09:47:05;97653.28;;;19.46;56.70
6094;BME280;19964;42.060;24.700;2023-04-23T09:49:44;97644.53;;;19.22;54.12
6094;BME280;19964;42.060;24.700;2023-04-23T09:52:12;97560.13;;;18.32;56.41
6094;BME280;19964;42.060;24.700;2023-04-23T09:54:39;97581.22;;;18.17;55.04
6094;BME280;19964;42.060;24.700;2023-04-23T09:57:07;97639.97;;;18.65;55.98
6094;BME280;19964;42.060;24.700;2023-04-23T09:59:34;97634.97;;;19.36;53.21
6094;BME280;19964;42.060;24.700;2023-04-23T10:02:03;97643.00;;;19.49;53.23
6094;BME280;19964;42.060;24.700;2023-04-23T10:04:30;97640.44;;;19.92;52.50
6094;BME280;19964;42.060;24.700;2023-04-23T10:06:59;97633.56;;;18.81;52.43
6094;BME280;19964;42.060;24.700;2023-04-23T10:09:27;97624.97;;;19.09;52.21
6094;BME280;19964;42.060;24.700;2023-04-23T10:11:56;97628.38;;;18.76;52.72
6094;BME280;19964;42.060;24.700;2023-04-23T10:14:25;97620.28;;;19.30;52.95
6094;BME280;19964;42.060;24.700;2023-04-23T10:16:56;97624.19;;;19.37;52.14
6094;BME280;19964;42.060;24.700;2023-04-23T10:19:23;97609.97;;;19.10;52.53
6094;BME280;19964;42.060;24.700;2023-04-23T10:21:53;97621.13;;;19.25;51.92
6094;BME280;19964;42.060;24.700;2023-04-23T10:24:23;97610.50;;;19.40;51.49
6094;BME280;19964;42.060;24.700;2023-04-23T10:26:55;97597.56;;;19.15;51.78
6094;BME280;19964;42.060;24.700;2023-04-23T10:29:25;97610.56;;;19.02;51.22
6094;BME280;19964;42.060;24.700;2023-04-23T10:31:53;97603.53;;;18.92;51.33
6094;BME280;19964;42.060;24.700;2023-04-23T10:34:22;97600.44;;;18.51;51.20
6094;BME280;19964;42.060;24.700;2023-04-23T10:36:50;97596.00;;;19.14;51.26
6094;BME280;19964;42.060;24.700;2023-04-23T10:39:17;97588.09;;;19.48;50.15
6094;BME280;19964;42.060;24.700;2023-04-23T10:41:45;97535.66;;;19.80;49.35
6094;BME280;19964;42.060;24.700;2023-04-23T10:44:13;97575.28;;;19.65;49.21
6094;BME280;19964;42.060;24.700;2023-04-23T10:46:51;97577.06;;;19.46;51.02
6094;BME280;19964;42.060;24.700;2023-04-23T10:49:18;97564.38;;;19.53;51.29
6094;BME280;19964;42.060;24.700;2023-04-23T10:51:47;97568.31;;;19.27;49.79
6094;BME280;19964;42.060;24.700;2023-04-23T10:54:15;97562.94;;;19.42;50.27
6094;BME280;19964;42.060;24.700;2023-04-23T10:56:42;97563.81;;;19.56;49.54
6094;BME280;19964;42.060;24.700;2023-04-23T10:59:17;97480.94;;;19.64;51.62
6094;BME280;19964;42.060;24.700;2023-04-23T11:01:45;97555.88;;;19.37;50.29
6094;BME280;19964;42.060;24.700;2023-04-23T11:04:24;97554.53;;;19.40;49.48
6094;BME280;19964;42.060;24.700;2023-04-23T11:06:54;97543.97;;;19.45;48.79
6094;BME280;19964;42.060;24.700;2023-04-23T11:09:28;97558.56;;;19.32;49.44
6094;BME280;19964;42.060;24.700;2023-04-23T11:11:56;97544.44;;;19.23;48.86
6094;BME280;19964;42.060;24.700;2023-04-23T11:14:32;97539.47;;;18.93;50.26
6094;BME280;19964;42.060;24.700;2023-04-23T11:16:59;97540.91;;;18.81;50.71
6094;BME280;19964;42.060;24.700;2023-04-23T11:19:27;97536.97;;;19.07;50.68
6094;BME280;19964;42.060;24.700;2023-04-23T11:21:57;97535.91;;;19.08;50.81
6094;BME280;19964;42.060;24.700;2023-04-23T11:24:30;97539.09;;;19.57;52.98
6094;BME280;19964;42.060;24.700;2023-04-23T11:26:58;97535.91;;;19.60;49.29
6094;BME280;19964;42.060;24.700;2023-04-23T11:29:26;97482.34;;;19.09;49.81
6094;BME280;19964;42.060;24.700;2023-04-23T11:31:54;97524.31;;;19.14;47.91
6094;BME280;19964;42.060;24.700;2023-04-23T11:34:21;97511.28;;;19.32;49.84
6094;BME280;19964;42.060;24.700;2023-04-23T11:36:51;97532.84;;;19.53;48.47
6094;BME280;19964;42.060;24.700;2023-04-23T11:39:18;97503.56;;;19.12;50.53
6094;BME280;19964;42.060;24.700;2023-04-23T11:41:45;97490.53;;;19.02;48.64
6094;BME280;19964;42.060;24.700;2023-04-23T11:44:12;97528.72;;;19.18;50.29
6094;BME280;19964;42.060;24.700;2023-04-23T11:46:39;97522.84;;;19.03;49.20
6094;BME280;19964;42.060;24.700;2023-04-23T11:49:06;97505.66;;;19.39;48.88
6094;BME280;19964;42.060;24.700;2023-04-23T11:51:40;97510.66;;;19.12;49.30
6094;BME280;19964;42.060;24.700;2023-04-23T11:54:09;97515.97;;;19.07;49.51
6094;BME280;19964;42.060;24.700;2023-04-23T11:56:36;97510.16;;;19.38;49.63
6094;BME280;19964;42.060;24.700;2023-04-23T11:59:04;97509.88;;;19.40;47.43
6094;BME280;19964;42.060;24.700;2023-04-23T12:01:41;97444.59;;;19.00;47.53
6094;BME280;19964;42.060;24.700;2023-04-23T12:04:12;97503.31;;;19.37;48.13
6094;BME280;19964;42.060;24.700;2023-04-23T12:06:40;97498.22;;;19.22;49.69
6094;BME280;19964;42.060;24.700;2023-04-23T12:09:09;97515.44;;;18.81;49.57
6094;BME280;19964;42.060;24.700;2023-04-23T12:11:37;97504.47;;;18.40;49.85
6094;BME280;19964;42.060;24.700;2023-04-23T12:14:05;97495.19;;;18.53;50.04
6094;BME280;19964;42.060;24.700;2023-04-23T12:16:34;97484.19;;;18.51;49.92
6094;BME280;19964;42.060;24.700;2023-04-23T12:19:01;97487.88;;;18.50;50.00
6094;BME280;19964;42.060;24.700;2023-04-23T12:21:28;97476.56;;;18.54;49.67
6094;BME280;19964;42.060;24.700;2023-04-23T12:23:55;97449.81;;;18.81;51.39
6094;BME280;19964;42.060;24.700;2023-04-23T12:26:25;97468.28;;;18.42;48.96
6094;BME280;19964;42.060;24.700;2023-04-23T12:28:53;97469.75;;;18.53;48.63
6094;BME280;19964;42.060;24.700;2023-04-23T12:31:21;97462.75;;;18.96;48.07
6094;BME280;19964;42.060;24.700;2023-04-23T12:33:56;97454.00;;;18.82;48.48
6094;BME280;19964;42.060;24.700;2023-04-23T12:36:26;97452.63;;;18.90;49.68
6094;BME280;19964;42.060;24.700;2023-04-23T12:39:24;97450.59;;;18.82;48.42
6094;BME280;19964;42.060;24.700;2023-04-23T12:41:58;97420.53;;;18.93;49.13
6094;BME280;19964;42.060;24.700;2023-04-23T12:44:27;97433.47;;;18.84;48.39
6094;BME280;19964;42.060;24.700;2023-04-23T12:46:54;97360.72;;;18.66;48.69
6094;BME280;19964;42.060;24.700;2023-04-23T12:49:21;97437.72;;;19.51;47.21
6094;BME280;19964;42.060;24.700;2023-04-23T12:51:48;97436.59;;;19.38;47.60
6094;BME280;19964;42.060;24.700;2023-04-23T12:54:17;97445.78;;;19.12;47.01
6094;BME280;19964;42.060;24.700;2023-04-23T12:56:43;97443.03;;;19.22;47.79
6094;BME280;19964;42.060;24.700;2023-04-23T12:59:14;97442.53;;;18.97;47.29